Time;durP1;ratioP1;P1;durP2;ratioP2;P2;SDS_P1;SDS_P2;PMS_P1;PMS_P2;Temp;Humidity;BMP_temperature;BMP_pressure;BME280_temperature;BME280_humidity;BME280_pressure;Samples;Min_cycle;Max_cycle;Signal;HPM_P1;HPM_P2
2023/06/16 00:02:17;;;;;;;5.93;2.63;;;;;;;18.40;72.15;93375.56;4967118;28;20409;-76
2023/06/16 00:04:43;;;;;;;5.75;3.13;;;;;;;18.43;72.10;93380.22;4968592;28;20074;-76
2023/06/16 00:07:12;;;;;;;3.33;2.20;;;;;;;18.37;72.09;93371.72;4966722;28;20043;-76
2023/06/16 00:09:38;;;;;;;5.35;2.92;;;;;;;18.42;71.71;93378.66;4964492;28;20408;-76
2023/06/16 00:12:04;;;;;;;5.28;2.80;;;;;;;18.37;71.86;93374.41;4965964;28;20290;-76
2023/06/16 00:14:29;;;;;;;4.35;2.55;;;;;;;18.42;72.02;93375.97;4964450;28;20220;-76
2023/06/16 00:16:57;;;;;;;2.67;2.33;;;;;;;18.45;71.84;93377.91;4967664;28;20030;-76
2023/06/16 00:19:27;;;;;;;3.03;2.67;;;;;;;18.43;71.91;93375.59;4964208;28;20046;-75
2023/06/16 00:21:52;;;;;;;4.43;2.58;;;;;;;18.38;71.93;93384.00;4966251;28;20038;-75
2023/06/16 00:24:18;;;;;;;5.30;2.70;;;;;;;18.29;71.86;93356.63;4967132;28;20046;-76
2023/06/16 00:26:43;;;;;;;3.00;2.33;;;;;;;18.42;71.74;93378.66;4968775;28;20065;-75
2023/06/16 00:29:09;;;;;;;5.32;2.40;;;;;;;18.34;71.75;93361.66;4969085;28;20084;-76
2023/06/16 00:31:34;;;;;;;6.85;3.22;;;;;;;18.43;71.81;93369.44;4968605;28;20040;-75
2023/06/16 00:34:00;;;;;;;7.63;4.03;;;;;;;18.48;71.72;93371.78;4969425;28;20298;-76
2023/06/16 00:36:26;;;;;;;7.18;4.60;;;;;;;18.41;71.81;93380.59;4969797;28;20406;-74
2023/06/16 00:38:52;;;;;;;4.97;4.25;;;;;;;18.35;72.13;93373.22;4969290;28;20042;-75
2023/06/16 00:41:17;;;;;;;4.85;3.20;;;;;;;18.37;71.96;93373.63;4969376;28;20441;-75
2023/06/16 00:43:43;;;;;;;5.82;3.13;;;;;;;18.51;71.68;93371.03;4968900;28;20031;-75
2023/06/16 00:46:11;;;;;;;3.28;2.55;;;;;;;18.44;71.47;93365.59;4968307;28;20081;-76
2023/06/16 00:48:36;;;;;;;6.10;3.22;;;;;;;18.39;71.55;93352.47;4965367;28;20039;-75
2023/06/16 00:51:02;;;;;;;3.85;2.80;;;;;;;18.42;71.72;93362.53;4967390;28;20037;-75
2023/06/16 00:53:30;;;;;;;4.25;3.20;;;;;;;18.39;71.85;93357.84;4968585;28;20486;-75
2023/06/16 00:55:57;;;;;;;4.65;3.05;;;;;;;18.42;71.85;93346.38;4965864;28;20034;-76
2023/06/16 00:58:22;;;;;;;4.32;3.72;;;;;;;18.44;71.74;93346.75;4967851;28;20034;-75
2023/06/16 01:00:47;;;;;;;8.45;3.88;;;;;;;18.41;71.84;93339.44;4968063;28;20379;-75
2023/06/16 01:03:15;;;;;;;4.55;4.00;;;;;;;18.32;71.84;93326.28;4968996;28;20047;-75
2023/06/16 01:05:40;;;;;;;4.97;4.00;;;;;;;18.29;72.03;93327.03;4972114;28;20041;-75
2023/06/16 01:08:53;;;;;;;5.63;3.72;;;;;;;18.36;72.34;93337.09;4955650;28;20047;-76
2023/06/16 01:11:36;;;;;;;5.07;3.13;;;;;;;18.38;72.46;93335.53;4970340;28;20170;-76
2023/06/16 01:14:16;;;;;;;3.65;2.60;;;;;;;18.39;72.17;93341.72;4971878;28;20042;-76
2023/06/16 01:16:44;;;;;;;5.15;2.47;;;;;;;18.34;72.08;93334.75;4972523;28;20117;-75
2023/06/16 01:19:22;;;;;;;4.88;2.53;;;;;;;18.38;72.06;93329.41;4971948;28;20050;-76
2023/06/16 01:21:47;;;;;;;3.53;2.45;;;;;;;18.43;72.02;93339.84;4989808;28;20119;-76
2023/06/16 01:24:18;;;;;;;4.22;2.60;;;;;;;18.32;72.30;93325.50;4984981;28;20046;-75
2023/06/16 01:26:49;;;;;;;3.28;2.75;;;;;;;18.29;72.18;93318.16;4992593;28;20038;-76
2023/06/16 01:29:17;;;;;;;7.70;3.03;;;;;;;18.34;72.13;93317.81;4990113;28;20384;-76
2023/06/16 01:31:43;;;;;;;6.18;2.72;;;;;;;18.41;72.14;93323.28;4982508;28;20519;-75
2023/06/16 01:34:10;;;;;;;3.88;2.63;;;;;;;18.41;71.80;93325.97;4989886;28;20039;-75
2023/06/16 01:36:39;;;;;;;3.65;2.70;;;;;;;18.42;71.83;93324.81;4992076;28;20038;-75
2023/06/16 01:39:06;;;;;;;5.00;2.72;;;;;;;18.37;71.86;93317.09;4990769;28;20038;-75
2023/06/16 01:41:33;;;;;;;5.43;2.60;;;;;;;18.24;72.07;93303.13;5006054;28;20034;-75
2023/06/16 01:44:00;;;;;;;3.40;2.60;;;;;;;18.36;72.00;93326.31;4991865;28;20037;-76
2023/06/16 01:46:26;;;;;;;4.95;2.40;;;;;;;18.33;72.21;93319.00;4985942;28;20617;-76
2023/06/16 01:48:52;;;;;;;5.22;2.50;;;;;;;18.40;72.10;93319.81;4991760;28;20534;-74
2023/06/16 01:51:18;;;;;;;3.42;2.65;;;;;;;18.28;72.18;93303.97;4990687;28;20061;-73
2023/06/16 01:53:44;;;;;;;2.75;2.55;;;;;;;18.37;72.21;93311.72;4990926;28;20064;-75
2023/06/16 01:56:12;;;;;;;6.50;2.58;;;;;;;18.42;72.34;93319.44;4990147;28;20038;-75
2023/06/16 01:58:38;;;;;;;6.07;3.05;;;;;;;18.41;72.17;93312.50;4990881;28;20037;-75
2023/06/16 02:01:07;;;;;;;6.93;2.58;;;;;;;18.44;72.12;93315.22;4988385;28;20378;-75
2023/06/16 02:03:41;;;;;;;6.05;2.92;;;;;;;18.30;71.95;93296.28;4992508;28;20573;-75
2023/06/16 02:06:39;;;;;;;5.28;3.03;;;;;;;18.48;72.05;93318.69;4991745;28;20104;-75
2023/06/16 02:09:09;;;;;;;2.80;2.55;;;;;;;18.52;72.20;93320.66;4985718;28;20391;-75
2023/06/16 02:11:35;;;;;;;5.03;2.75;;;;;;;18.46;71.90;93325.63;4990967;28;20505;-75
2023/06/16 02:14:03;;;;;;;5.18;2.83;;;;;;;18.36;71.96;93304.78;4988533;28;20056;-75
2023/06/16 02:16:34;;;;;;;4.80;2.92;;;;;;;18.40;71.98;93311.72;4992364;28;20037;-75
2023/06/16 02:19:00;;;;;;;6.10;3.67;;;;;;;18.48;71.97;93323.31;4987455;28;20045;-76
2023/06/16 02:21:25;;;;;;;5.43;4.05;;;;;;;18.44;72.27;93315.22;4990486;28;20026;-75
2023/06/16 02:23:51;;;;;;;6.90;4.43;;;;;;;18.54;71.63;93315.66;4986948;28;20041;-75
2023/06/16 02:26:16;;;;;;;3.78;3.38;;;;;;;18.50;71.42;93312.94;4988563;28;20394;-75
2023/06/16 02:28:42;;;;;;;4.93;3.90;;;;;;;18.45;71.68;93314.06;4997491;28;20469;-76
2023/06/16 02:31:07;;;;;;;7.00;3.65;;;;;;;18.41;72.32;93312.50;4989236;28;20040;-76
2023/06/16 02:33:32;;;;;;;9.80;5.75;;;;;;;18.50;72.12;93309.47;4989403;28;20080;-75
2023/06/16 02:35:58;;;;;;;6.82;4.70;;;;;;;18.55;71.47;93320.69;4988986;28;20483;-75
2023/06/16 02:38:24;;;;;;;7.05;5.57;;;;;;;18.52;71.69;93318.75;4989904;28;20383;-75
2023/06/16 02:40:49;;;;;;;5.55;4.70;;;;;;;18.50;72.03;93326.41;4989224;28;20045;-75
2023/06/16 02:43:14;;;;;;;10.43;6.00;;;;;;;18.41;72.28;93320.59;4988099;28;20037;-75
2023/06/16 02:45:40;;;;;;;5.90;4.88;;;;;;;18.50;72.29;93325.63;4990097;28;20041;-75
2023/06/16 02:48:05;;;;;;;5.65;4.53;;;;;;;18.50;72.34;93329.09;4987722;28;20503;-75
2023/06/16 02:50:31;;;;;;;5.60;4.95;;;;;;;18.48;72.38;93320.63;4988510;28;20031;-76
2023/06/16 02:52:58;;;;;;;5.80;4.35;;;;;;;18.41;72.02;93304.44;4990288;28;20607;-75
2023/06/16 02:55:24;;;;;;;5.00;3.67;;;;;;;18.54;71.99;93321.81;4989800;28;20041;-75
2023/06/16 02:57:49;;;;;;;10.05;4.47;;;;;;;18.52;72.14;93318.75;4989483;28;20404;-75
2023/06/16 03:00:16;;;;;;;5.68;4.20;;;;;;;18.41;72.21;93302.50;4988905;28;20037;-76
2023/06/16 03:02:41;;;;;;;5.10;4.07;;;;;;;18.50;72.41;93309.47;4989528;28;20061;-75
2023/06/16 03:05:07;;;;;;;5.32;4.82;;;;;;;18.47;72.72;93319.09;4990534;28;20528;-75
2023/06/16 03:07:36;;;;;;;6.13;4.72;;;;;;;18.34;72.82;93296.28;4990463;28;20029;-75
2023/06/16 03:10:02;;;;;;;6.78;5.07;;;;;;;18.50;72.63;93314.88;4988323;28;20068;-75
2023/06/16 03:12:28;;;;;;;5.93;4.45;;;;;;;18.48;72.56;93307.16;4988839;28;20204;-75
2023/06/16 03:14:53;;;;;;;5.05;4.55;;;;;;;18.49;72.63;93308.69;4989576;28;20407;-75
2023/06/16 03:17:21;;;;;;;7.32;4.50;;;;;;;18.45;72.55;93297.16;4989060;28;20042;-75
2023/06/16 03:19:48;;;;;;;7.03;5.45;;;;;;;18.50;72.48;93314.88;4995080;28;20027;-75
2023/06/16 03:22:14;;;;;;;7.55;5.82;;;;;;;18.50;72.55;93307.56;4990087;28;20022;-76
2023/06/16 03:24:41;;;;;;;5.95;4.97;;;;;;;18.44;72.50;93306.38;4990740;28;20033;-76
2023/06/16 03:27:08;;;;;;;8.05;6.15;;;;;;;18.50;72.23;93312.94;4993430;28;20038;-74
2023/06/16 03:29:34;;;;;;;9.73;6.15;;;;;;;18.40;72.53;93300.19;4992394;28;20539;-75
2023/06/16 03:32:00;;;;;;;8.88;6.07;;;;;;;18.43;72.43;93305.59;4988823;28;20030;-75
2023/06/16 03:34:26;;;;;;;6.30;5.22;;;;;;;18.46;72.27;93307.53;4989617;28;20427;-75
2023/06/16 03:36:51;;;;;;;10.73;6.40;;;;;;;18.35;72.28;93292.47;4987441;28;20043;-75
2023/06/16 03:39:17;;;;;;;7.90;5.97;;;;;;;18.46;72.19;93304.09;4989702;28;20038;-76
2023/06/16 03:41:42;;;;;;;8.60;6.70;;;;;;;18.43;72.31;93296.75;4988849;28;20037;-75
2023/06/16 03:44:08;;;;;;;10.75;7.38;;;;;;;18.39;72.60;93287.88;4991179;28;20481;-76
2023/06/16 03:46:34;;;;;;;8.95;7.10;;;;;;;18.48;72.38;93299.06;4987450;28;20021;-75
2023/06/16 03:48:59;;;;;;;8.63;7.03;;;;;;;18.43;72.58;93278.66;4989239;28;20514;-76
2023/06/16 03:51:25;;;;;;;9.85;7.75;;;;;;;18.40;72.74;93278.66;4984014;28;20049;-75
2023/06/16 03:53:51;;;;;;;12.60;8.25;;;;;;;18.51;72.61;93282.19;4989064;28;21146;-75
2023/06/16 03:56:17;;;;;;;11.32;7.88;;;;;;;18.42;72.66;93270.97;4988209;28;20042;-75
2023/06/16 03:58:43;;;;;;;12.13;7.75;;;;;;;18.48;72.82;93277.53;4988778;28;20025;-75
2023/06/16 04:01:09;;;;;;;20.05;8.73;;;;;;;18.50;72.54;93277.94;4988579;28;20401;-76
2023/06/16 04:03:35;;;;;;;11.85;8.70;;;;;;;18.52;73.00;93281.03;4988146;28;20034;-75
2023/06/16 04:06:01;;;;;;;12.55;8.30;;;;;;;18.42;73.08;93273.66;4987206;28;20065;-75
2023/06/16 04:08:27;;;;;;;12.60;8.48;;;;;;;18.41;73.02;93277.50;4988666;28;20125;-76
2023/06/16 04:10:57;;;;;;;11.65;8.30;;;;;;;18.41;73.39;93282.91;4991531;28;20435;-75
2023/06/16 04:13:23;;;;;;;16.67;9.95;;;;;;;18.36;73.54;93275.16;4988099;28;20898;-75
2023/06/16 04:15:49;;;;;;;17.30;11.23;;;;;;;18.34;73.79;93280.91;4986751;28;20041;-75
2023/06/16 04:18:15;;;;;;;17.85;10.57;;;;;;;18.28;74.23;93281.66;4988265;28;20063;-75
2023/06/16 04:20:40;;;;;;;14.10;11.15;;;;;;;18.18;74.40;93266.19;4988491;28;20034;-75
2023/06/16 04:23:09;;;;;;;17.67;12.70;;;;;;;18.25;74.33;93260.84;4987332;28;20064;-76
2023/06/16 04:25:38;;;;;;;17.98;13.60;;;;;;;18.23;74.75;93268.53;4987223;28;20015;-76
2023/06/16 04:28:05;;;;;;;20.00;15.60;;;;;;;18.31;74.71;93275.50;4988310;28;20419;-75
2023/06/16 04:30:33;;;;;;;18.45;13.20;;;;;;;18.20;74.57;93264.66;4986533;28;20112;-75
2023/06/16 04:33:01;;;;;;;18.88;13.75;;;;;;;18.27;74.50;93270.13;4993213;28;20049;-75
2023/06/16 04:35:31;;;;;;;21.02;13.10;;;;;;;18.38;74.50;93286.34;4986088;28;20141;-75
2023/06/16 04:37:57;;;;;;;15.90;13.10;;;;;;;18.19;74.51;93246.19;4989106;28;20637;-75
2023/06/16 04:40:23;;;;;;;18.33;12.98;;;;;;;18.48;74.39;93269.47;4990289;28;20040;-75
2023/06/16 04:42:49;;;;;;;19.70;13.52;;;;;;;18.42;74.18;93266.38;4985975;28;20125;-75
2023/06/16 04:45:15;;;;;;;18.25;14.00;;;;;;;18.28;74.99;93276.28;4990464;28;20408;-75
2023/06/16 04:47:42;;;;;;;19.88;14.45;;;;;;;18.28;75.35;93277.03;4988931;28;20370;-75
2023/06/16 04:50:09;;;;;;;21.52;15.15;;;;;;;18.27;75.09;93274.72;4993249;28;20034;-75
2023/06/16 04:52:36;;;;;;;22.83;15.80;;;;;;;18.39;74.62;93269.03;4991192;28;20059;-76
2023/06/16 04:55:02;;;;;;;22.75;16.92;;;;;;;18.40;74.85;93273.25;4989513;28;20456;-75
2023/06/16 04:57:27;;;;;;;21.15;15.00;;;;;;;18.42;74.72;93265.59;4990998;28;20041;-75
2023/06/16 04:59:53;;;;;;;20.33;15.13;;;;;;;18.53;74.42;93271.78;4992112;28;20035;-75
2023/06/16 05:02:18;;;;;;;16.58;13.95;;;;;;;18.52;74.35;93267.59;4990980;28;20041;-75
2023/06/16 05:04:44;;;;;;;17.75;13.50;;;;;;;18.52;74.23;93259.50;4993879;28;20468;-75
2023/06/16 05:07:11;;;;;;;21.90;13.60;;;;;;;18.65;73.75;93284.97;4990014;28;20065;-75
2023/06/16 05:09:38;;;;;;;19.13;14.32;;;;;;;18.64;73.53;93275.34;4989256;28;20126;-75
2023/06/16 05:12:05;;;;;;;20.25;15.15;;;;;;;18.67;73.32;93281.91;4990221;28;20037;-74
2023/06/16 05:14:31;;;;;;;21.35;15.27;;;;;;;18.62;73.55;93276.88;4989747;28;20042;-74
2023/06/16 05:16:56;;;;;;;19.48;15.25;;;;;;;18.73;73.41;93275.78;5003071;28;20036;-75
2023/06/16 05:19:21;;;;;;;18.73;14.88;;;;;;;18.71;73.48;93277.34;4991761;28;20049;-75
2023/06/16 05:21:47;;;;;;;19.20;14.77;;;;;;;18.59;73.75;93264.91;4990709;28;20035;-75
2023/06/16 05:24:12;;;;;;;19.95;15.05;;;;;;;18.66;73.97;93289.22;4989019;28;20121;-75
2023/06/16 05:26:38;;;;;;;16.33;12.80;;;;;;;18.61;73.94;93289.56;4989313;28;20642;-74
2023/06/16 05:29:04;;;;;;;18.65;12.45;;;;;;;18.66;73.78;93286.53;4983553;28;20149;-74
2023/06/16 05:31:30;;;;;;;15.10;12.43;;;;;;;18.65;73.78;93287.66;4989406;28;20410;-74
2023/06/16 05:33:55;;;;;;;18.02;12.00;;;;;;;18.44;74.05;93257.91;4992113;28;20606;-74
2023/06/16 05:36:24;;;;;;;15.63;11.52;;;;;;;18.49;74.08;93271.00;4997287;28;20068;-74
2023/06/16 05:38:52;;;;;;;15.45;12.30;;;;;;;18.41;73.88;93282.91;4992062;28;20919;-75
2023/06/16 05:41:23;;;;;;;16.95;14.02;;;;;;;18.33;74.49;93271.28;4990019;28;20038;-74
2023/06/16 05:43:49;;;;;;;18.45;13.57;;;;;;;18.44;74.47;93285.59;4994517;28;20388;-73
2023/06/16 05:46:14;;;;;;;17.00;14.18;;;;;;;18.48;74.41;93291.00;4993103;28;20058;-74
2023/06/16 05:48:40;;;;;;;16.08;13.25;;;;;;;18.31;74.90;93280.91;4989920;28;20029;-73
2023/06/16 05:51:05;;;;;;;16.25;13.35;;;;;;;18.38;74.36;93275.56;4992036;28;20034;-73
2023/06/16 05:53:31;;;;;;;16.38;12.27;;;;;;;18.48;74.73;93288.31;4990165;28;20035;-73
2023/06/16 05:55:57;;;;;;;14.60;11.77;;;;;;;18.43;74.63;93289.44;4988674;28;20089;-74
2023/06/16 05:58:22;;;;;;;15.35;13.75;;;;;;;18.15;75.14;93280.38;4989796;28;20112;-73
2023/06/16 06:00:48;;;;;;;15.35;12.90;;;;;;;18.29;74.98;93283.19;4992770;28;20045;-74
2023/06/16 06:03:13;;;;;;;17.63;12.52;;;;;;;18.46;74.92;93298.69;4990732;28;20156;-74
2023/06/16 06:05:38;;;;;;;17.45;13.35;;;;;;;18.46;75.01;93298.69;4989679;28;20048;-74
2023/06/16 06:08:04;;;;;;;15.80;13.93;;;;;;;18.33;75.06;93273.22;4988469;28;20030;-74
2023/06/16 06:10:29;;;;;;;14.32;12.25;;;;;;;18.52;75.05;93299.91;4991709;28;20025;-74
2023/06/16 06:12:55;;;;;;;14.27;12.77;;;;;;;18.42;75.38;93292.53;4990528;28;20145;-74
2023/06/16 06:15:20;;;;;;;13.57;12.05;;;;;;;18.49;75.54;93297.94;4989507;28;20501;-73
2023/06/16 06:17:46;;;;;;;18.02;12.07;;;;;;;18.40;76.08;93300.19;4988031;28;20030;-73
2023/06/16 06:20:11;;;;;;;15.55;13.10;;;;;;;18.45;76.52;93302.53;4988870;28;20038;-74
2023/06/16 06:22:36;;;;;;;14.63;12.55;;;;;;;18.37;75.98;93292.88;4987833;28;20421;-73
2023/06/16 06:25:05;;;;;;;15.00;13.43;;;;;;;18.40;76.42;93298.28;4990863;28;20026;-73
2023/06/16 06:27:30;;;;;;;16.45;13.27;;;;;;;18.47;77.00;93294.88;4987486;28;20046;-75
2023/06/16 06:29:56;;;;;;;14.20;12.23;;;;;;;18.61;76.23;93286.88;4989467;28;20041;-73
2023/06/16 06:32:21;;;;;;;14.93;11.25;;;;;;;18.43;76.54;93248.31;4988843;28;20038;-73
2023/06/16 06:34:47;;;;;;;14.82;11.63;;;;;;;18.58;77.22;93295.69;4991144;28;20034;-73
2023/06/16 06:37:16;;;;;;;18.85;13.55;;;;;;;18.57;77.89;93279.91;4987833;28;20555;-74
2023/06/16 06:39:42;;;;;;;13.13;11.90;;;;;;;18.73;77.84;93291.97;4990059;28;20034;-72
2023/06/16 06:42:09;;;;;;;14.68;12.07;;;;;;;18.79;77.36;93282.38;4987753;28;20077;-74
2023/06/16 06:44:35;;;;;;;11.35;10.20;;;;;;;18.92;75.74;93282.81;4991409;28;20109;-75
2023/06/16 06:47:00;;;;;;;13.60;12.23;;;;;;;18.94;76.07;93282.44;4987266;28;20091;-74
2023/06/16 06:49:26;;;;;;;13.77;12.05;;;;;;;18.85;76.19;93274.72;4990695;28;20037;-74
2023/06/16 06:51:51;;;;;;;13.10;11.88;;;;;;;18.81;75.24;93263.94;4987115;28;20445;-76
2023/06/16 06:54:16;;;;;;;13.63;11.65;;;;;;;18.65;77.48;93279.56;4993017;28;20049;-75
2023/06/16 06:56:42;;;;;;;14.13;12.20;;;;;;;18.83;77.65;93275.09;4990805;28;20038;-76
2023/06/16 06:59:07;;;;;;;13.05;10.82;;;;;;;19.00;76.34;93276.31;4987672;28;20366;-75
2023/06/16 07:01:33;;;;;;;13.50;11.25;;;;;;;19.01;76.70;93271.72;4990509;28;20061;-75
2023/06/16 07:03:58;;;;;;;17.00;12.18;;;;;;;19.07;76.50;93279.03;4988383;28;20082;-74
2023/06/16 07:06:24;;;;;;;15.98;12.07;;;;;;;19.14;75.69;93272.91;4989027;28;20056;-76
2023/06/16 07:08:50;;;;;;;20.92;10.95;;;;;;;18.98;75.10;93267.06;4986484;28;20043;-74
2023/06/16 07:11:15;;;;;;;12.30;11.00;;;;;;;19.04;74.81;93279.03;4992951;28;20161;-74
2023/06/16 07:13:41;;;;;;;10.48;9.27;;;;;;;19.07;74.93;93265.56;4989355;28;20333;-74
2023/06/16 07:16:06;;;;;;;14.50;9.32;;;;;;;19.20;74.88;93263.31;4987812;28;20852;-75
2023/06/16 07:18:32;;;;;;;11.40;9.07;;;;;;;19.15;74.04;93264.44;4990264;28;20073;-75
2023/06/16 07:20:57;;;;;;;12.48;8.15;;;;;;;19.01;74.70;93274.41;4986784;28;20401;-75
2023/06/16 07:23:25;;;;;;;12.93;8.98;;;;;;;18.99;74.38;93268.59;4987834;28;20069;-74
2023/06/16 07:25:51;;;;;;;11.95;9.52;;;;;;;18.69;74.34;93263.44;4986685;28;20026;-75
2023/06/16 07:28:16;;;;;;;13.13;8.80;;;;;;;18.51;75.52;93278.72;4987809;28;20023;-74
2023/06/16 07:30:42;;;;;;;11.93;9.45;;;;;;;18.52;75.49;93275.66;4985696;28;20045;-74
2023/06/16 07:33:08;;;;;;;12.57;9.30;;;;;;;18.24;76.44;93280.84;4987485;28;20041;-76
2023/06/16 07:35:34;;;;;;;16.05;9.65;;;;;;;18.38;76.59;93279.00;4989403;28;20077;-75
2023/06/16 07:37:59;;;;;;;14.07;11.02;;;;;;;18.55;75.33;93279.50;4982473;28;20125;-74
2023/06/16 07:40:25;;;;;;;14.27;9.88;;;;;;;18.23;75.38;93268.53;4990098;28;20038;-75
2023/06/16 07:42:50;;;;;;;16.83;10.82;;;;;;;18.39;74.50;93279.78;4985646;28;20042;-74
2023/06/16 07:45:17;;;;;;;13.68;9.93;;;;;;;18.35;75.78;93287.06;4986934;28;20115;-75
2023/06/16 07:47:43;;;;;;;19.77;11.45;;;;;;;18.26;76.63;93292.00;4986213;28;20030;-74
2023/06/16 07:50:12;;;;;;;14.77;10.85;;;;;;;18.13;75.51;93277.31;4985386;28;20494;-75
2023/06/16 07:52:38;;;;;;;13.32;9.70;;;;;;;18.32;75.27;93290.53;4987184;28;20022;-75
2023/06/16 07:55:04;;;;;;;17.02;10.60;;;;;;;18.33;75.90;93290.13;4986732;28;20050;-74
2023/06/16 07:57:29;;;;;;;19.00;11.57;;;;;;;18.41;76.46;93288.28;4988017;28;20161;-75
2023/06/16 07:59:55;;;;;;;12.00;9.32;;;;;;;18.16;76.16;93284.63;4988974;28;20580;-75
2023/06/16 08:02:20;;;;;;;11.82;9.40;;;;;;;18.27;75.62;93296.25;4988291;28;20671;-74
2023/06/16 08:04:45;;;;;;;10.90;9.07;;;;;;;18.35;75.60;93295.94;4985830;28;20022;-75
2023/06/16 08:07:11;;;;;;;11.93;9.63;;;;;;;18.50;74.13;93291.41;4988248;28;21318;-75
2023/06/16 08:09:37;;;;;;;13.48;10.40;;;;;;;18.62;74.69;93288.41;4992124;28;20189;-75
2023/06/16 08:12:02;;;;;;;13.80;11.50;;;;;;;18.67;72.99;93298.06;4987355;28;20029;-75
2023/06/16 08:14:30;;;;;;;13.65;11.57;;;;;;;18.31;73.36;93297.81;4985792;28;20096;-74
2023/06/16 08:16:55;;;;;;;17.65;11.68;;;;;;;18.03;73.74;93292.22;4986201;28;20027;-74
2023/06/16 08:19:20;;;;;;;16.00;11.60;;;;;;;18.02;74.08;93301.44;4988437;28;20029;-75
2023/06/16 08:21:46;;;;;;;16.38;11.68;;;;;;;17.75;74.16;93302.69;4988147;28;20035;-74
2023/06/16 08:24:11;;;;;;;16.33;12.20;;;;;;;17.80;75.32;93300.44;4987074;28;20504;-74
2023/06/16 08:26:37;;;;;;;16.67;12.52;;;;;;;17.69;74.48;93291.50;4985260;28;20081;-75
2023/06/16 08:29:03;;;;;;;15.93;11.98;;;;;;;17.84;75.20;93306.66;4989230;28;20025;-74
2023/06/16 08:31:29;;;;;;;17.08;12.82;;;;;;;17.88;74.09;93285.94;4986279;28;20123;-74
2023/06/16 08:33:55;;;;;;;16.70;12.15;;;;;;;18.13;73.30;93298.84;4986545;28;20411;-74
2023/06/16 08:36:22;;;;;;;15.15;12.35;;;;;;;17.82;74.39;93300.84;4986616;28;20046;-75
2023/06/16 08:38:48;;;;;;;17.60;14.00;;;;;;;17.87;73.36;93297.81;4988142;28;20030;-73
2023/06/16 08:41:16;;;;;;;15.23;12.38;;;;;;;17.80;74.35;93291.59;4990337;28;20030;-73
2023/06/16 08:43:43;;;;;;;16.65;12.52;;;;;;;17.81;73.83;93291.22;4985368;28;20473;-72
2023/06/16 08:46:08;;;;;;;17.88;13.25;;;;;;;18.06;73.25;93296.84;5002498;28;20617;-74
2023/06/16 08:48:37;;;;;;;19.25;14.60;;;;;;;18.08;73.68;93285.72;4987786;28;20041;-74
2023/06/16 08:51:04;;;;;;;16.98;14.07;;;;;;;18.20;74.11;93286.19;4988209;28;20034;-75
2023/06/16 08:53:33;;;;;;;17.45;13.23;;;;;;;18.24;70.94;93291.59;4988057;28;20037;-74
2023/06/16 08:56:02;;;;;;;14.60;12.40;;;;;;;18.53;71.26;93282.56;4990466;28;20633;-75
2023/06/16 08:58:29;;;;;;;17.25;13.73;;;;;;;18.28;71.92;93287.03;4987625;28;20151;-74
2023/06/16 09:00:58;;;;;;;16.25;13.95;;;;;;;18.28;70.68;93292.44;4989545;28;20121;-74
2023/06/16 09:03:25;;;;;;;18.10;14.40;;;;;;;18.30;70.19;93285.50;4987061;28;20038;-74
2023/06/16 09:05:52;;;;;;;17.65;14.02;;;;;;;18.32;71.43;93293.22;4986107;28;20583;-73
2023/06/16 09:08:20;;;;;;;17.25;14.45;;;;;;;18.33;70.68;93286.69;4987628;28;20042;-74
2023/06/16 09:10:50;;;;;;;18.55;14.13;;;;;;;18.18;70.99;93293.13;4987855;28;20591;-74
2023/06/16 09:13:17;;;;;;;16.95;13.70;;;;;;;17.98;70.92;93279.13;4987622;28;20049;-74
2023/06/16 09:15:46;;;;;;;15.65;13.77;;;;;;;18.44;71.54;93301.75;4977739;28;20145;-75
2023/06/16 09:18:11;;;;;;;20.55;15.38;;;;;;;18.69;70.59;93295.75;4975366;28;20596;-74
2023/06/16 09:20:41;;;;;;;17.52;13.60;;;;;;;18.59;71.07;93281.06;4981110;28;20046;-75
2023/06/16 09:23:08;;;;;;;20.83;15.32;;;;;;;18.36;72.38;93277.84;4982655;28;20068;-75
2023/06/16 09:25:34;;;;;;;19.05;14.13;;;;;;;18.35;70.07;93282.47;4984916;28;20324;-74
2023/06/16 09:28:09;;;;;;;17.85;14.57;;;;;;;18.38;71.12;93281.69;4986206;28;20038;-74
2023/06/16 09:30:35;;;;;;;16.65;13.93;;;;;;;18.44;71.76;93263.28;4991108;28;20598;-74
2023/06/16 09:33:01;;;;;;;18.20;15.27;;;;;;;18.25;72.51;93279.69;4984455;28;20573;-75
2023/06/16 09:35:29;;;;;;;17.58;13.90;;;;;;;18.21;70.84;93282.38;4989802;28;20089;-74
2023/06/16 09:37:58;;;;;;;15.80;13.05;;;;;;;18.37;69.24;93287.47;4988775;28;20116;-75
2023/06/16 09:40:28;;;;;;;16.75;13.68;;;;;;;18.52;69.45;93280.28;4990439;28;20026;-74
2023/06/16 09:42:57;;;;;;;16.95;14.07;;;;;;;18.59;68.80;93281.06;4989170;28;20465;-74
2023/06/16 09:45:26;;;;;;;17.88;13.55;;;;;;;18.33;69.96;93281.31;4991398;28;20033;-74
2023/06/16 09:47:52;;;;;;;17.85;14.68;;;;;;;18.26;70.86;93279.31;4989947;28;20069;-74
2023/06/16 09:50:19;;;;;;;20.52;14.95;;;;;;;18.30;71.25;93290.13;4989983;28;20153;-74
2023/06/16 09:52:46;;;;;;;17.77;14.25;;;;;;;18.12;71.38;93279.22;4993517;28;20026;-74
2023/06/16 09:55:12;;;;;;;17.58;15.32;;;;;;;18.23;71.25;93279.31;4988895;28;20069;-74
2023/06/16 09:57:39;;;;;;;17.70;14.60;;;;;;;18.28;71.45;93282.44;4988237;28;20042;-74
2023/06/16 10:00:09;;;;;;;18.45;16.08;;;;;;;18.38;71.87;93270.19;4987609;28;20867;-74
2023/06/16 10:02:36;;;;;;;19.50;15.80;;;;;;;18.31;72.18;93286.28;4990684;28;20038;-75
2023/06/16 10:05:09;;;;;;;17.73;15.05;;;;;;;18.24;72.86;93264.69;4987162;28;20571;-74
2023/06/16 10:07:36;;;;;;;14.70;13.10;;;;;;;18.18;71.14;93234.69;4989894;28;20026;-74
2023/06/16 10:10:04;;;;;;;15.77;13.98;;;;;;;18.38;70.75;93246.72;4988789;28;20086;-74
2023/06/16 10:12:33;;;;;;;16.23;13.70;;;;;;;18.29;68.28;93267.81;4986841;28;20046;-75
2023/06/16 10:15:02;;;;;;;15.82;13.95;;;;;;;18.48;68.78;93254.06;4989789;28;20153;-74
2023/06/16 10:17:30;;;;;;;19.73;14.32;;;;;;;18.51;67.73;93246.41;4991336;28;20405;-74
2023/06/16 10:19:56;;;;;;;17.15;14.35;;;;;;;18.67;68.78;93250.38;4984508;28;20033;-74
2023/06/16 10:22:22;;;;;;;16.55;14.10;;;;;;;18.73;68.32;93248.84;4991951;28;20089;-74
2023/06/16 10:24:48;;;;;;;18.08;15.20;;;;;;;18.67;69.61;93241.50;4984773;28;20453;-74
2023/06/16 10:27:14;;;;;;;16.10;13.95;;;;;;;18.76;65.62;93242.75;4988411;28;20522;-74
2023/06/16 10:29:41;;;;;;;17.90;14.57;;;;;;;18.59;66.79;93221.81;4988944;28;20050;-73
2023/06/16 10:32:07;;;;;;;16.27;14.57;;;;;;;18.86;64.81;93255.50;4988928;28;22585;-74
2023/06/16 10:34:34;;;;;;;16.27;14.25;;;;;;;18.82;66.06;93235.81;4986759;28;20026;-75
2023/06/16 10:37:00;;;;;;;14.75;13.15;;;;;;;19.06;63.86;93228.22;4988384;28;20048;-75
2023/06/16 10:39:26;;;;;;;16.08;14.20;;;;;;;19.34;66.29;93228.31;4984877;28;20034;-76
2023/06/16 10:41:57;;;;;;;16.45;14.35;;;;;;;19.52;66.54;93237.22;4988041;28;20519;-75
2023/06/16 10:44:32;;;;;;;16.30;14.70;;;;;;;19.76;63.97;93230.31;4984234;28;20390;-75
2023/06/16 10:47:12;;;;;;;18.65;15.02;;;;;;;19.69;63.09;93238.41;4981889;28;20034;-75
2023/06/16 10:49:51;;;;;;;16.10;14.43;;;;;;;20.00;62.40;93231.47;4986869;28;20137;-75
2023/06/16 10:52:18;;;;;;;16.77;14.73;;;;;;;20.04;61.09;93224.16;4989976;28;20393;-74
2023/06/16 10:54:45;;;;;;;16.67;14.85;;;;;;;20.28;62.86;93226.09;4988253;28;20069;-75
2023/06/16 10:57:15;;;;;;;21.38;16.08;;;;;;;20.28;62.01;93212.59;4988408;28;20048;-75
2023/06/16 10:59:59;;;;;;;18.33;14.90;;;;;;;20.13;62.45;93219.13;4988149;28;20041;-76
2023/06/16 11:02:27;;;;;;;17.00;15.20;;;;;;;20.14;62.58;93209.88;5002746;28;20042;-74
2023/06/16 11:05:07;;;;;;;17.02;15.25;;;;;;;20.29;62.25;93206.00;4989238;28;20027;-74
2023/06/16 11:07:43;;;;;;;17.30;14.15;;;;;;;20.12;62.19;93204.09;4987925;28;20069;-75
2023/06/16 11:10:17;;;;;;;14.10;12.70;;;;;;;19.85;59.47;93205.66;4991387;28;20074;-75
2023/06/16 11:12:43;;;;;;;19.25;14.35;;;;;;;20.06;60.82;93201.00;4989993;28;20114;-75
2023/06/16 11:15:10;;;;;;;17.88;13.05;;;;;;;20.28;61.30;93196.41;4983409;28;20390;-75
2023/06/16 11:17:35;;;;;;;18.58;14.07;;;;;;;19.94;60.81;93185.22;4986995;28;20080;-76
2023/06/16 11:20:03;;;;;;;14.32;12.52;;;;;;;20.08;58.96;93187.13;4985233;28;20029;-75
2023/06/16 11:22:30;;;;;;;15.60;13.30;;;;;;;20.19;58.90;93187.91;4986153;28;20022;-75
2023/06/16 11:24:56;;;;;;;15.68;13.93;;;;;;;20.22;58.36;93187.16;4983816;28;20096;-75